Time;durP1;ratioP1;P1;durP2;ratioP2;P2;SDS_P1;SDS_P2;PMS_P1;PMS_P2;Temp;Humidity;BMP_temperature;BMP_pressure;BME280_temperature;BME280_humidity;BME280_pressure;Samples;Min_cycle;Max_cycle;Signal;HPM_P1;HPM_P2
2022/06/17 00:01:27;;;;;;;2.80;2.47;;;;;;;26.17;54.62;101808.43;1555315;92;21066;-48
2022/06/17 00:03:56;;;;;;;5.25;2.50;;;;;;;26.18;54.59;101806.11;1555426;91;21152;-50
2022/06/17 00:06:24;;;;;;;3.80;2.72;;;;;;;26.19;54.50;101803.84;1555913;91;21073;-48
2022/06/17 00:08:52;;;;;;;3.83;2.62;;;;;;;26.17;54.48;101798.58;1555389;91;21050;-49
2022/06/17 00:11:31;;;;;;;4.22;2.47;;;;;;;26.20;54.50;101808.20;1555708;91;21074;-49
2022/06/17 00:13:59;;;;;;;3.52;2.65;;;;;;;26.21;54.50;101808.59;1555262;92;21621;-49
2022/06/17 00:16:26;;;;;;;2.72;2.50;;;;;;;26.22;54.49;101808.94;1555650;91;21078;-49
2022/06/17 00:18:53;;;;;;;3.85;2.65;;;;;;;26.22;54.47;101803.60;1555606;91;21090;-49
2022/06/17 00:21:36;;;;;;;4.33;2.70;;;;;;;26.23;54.39;101806.19;1555415;91;21142;-49
2022/06/17 00:24:14;;;;;;;4.00;2.37;;;;;;;26.24;54.49;101805.21;1530842;94;21092;-51
2022/06/17 00:26:41;;;;;;;6.35;2.85;;;;;;;26.25;54.55;101806.07;1530938;93;21091;-48
2022/06/17 00:29:14;;;;;;;3.60;2.67;;;;;;;26.24;54.66;101804.34;1536467;92;21141;-50
2022/06/17 00:31:42;;;;;;;4.55;2.77;;;;;;;26.25;54.66;101808.73;1518970;94;21097;-50
2022/06/17 00:34:09;;;;;;;4.40;2.87;;;;;;;26.27;54.60;101805.48;1519984;94;21078;-50
2022/06/17 00:36:37;;;;;;;5.92;2.50;;;;;;;26.27;54.68;101802.34;1517952;94;21109;-52
2022/06/17 00:39:12;;;;;;;2.87;2.60;;;;;;;26.27;54.67;101798.81;1520045;93;21053;-50
2022/06/17 00:41:39;;;;;;;6.92;3.00;;;;;;;26.26;54.70;101803.76;1494522;95;21557;-50
2022/06/17 00:44:37;;;;;;;7.00;3.12;;;;;;;26.26;54.74;101799.28;1494576;95;21125;-48
2022/06/17 00:47:26;;;;;;;3.83;2.72;;;;;;;26.27;54.73;101798.81;1494582;95;21092;-49
2022/06/17 00:50:03;;;;;;;4.17;2.80;;;;;;;26.25;54.70;101794.06;1494672;95;21146;-49
2022/06/17 00:52:41;;;;;;;4.72;2.92;;;;;;;26.25;54.67;101795.40;1491933;95;21105;-50
2022/06/17 00:55:28;;;;;;;4.28;2.85;;;;;;;26.23;54.56;101796.84;1497456;95;21070;-48
2022/06/17 00:57:56;;;;;;;5.35;3.05;;;;;;;26.21;54.44;101792.58;1514114;94;21098;-50
2022/06/17 01:00:25;;;;;;;4.05;2.70;;;;;;;26.19;54.27;101787.83;1526824;92;21098;-52
2022/06/17 01:03:00;;;;;;;4.95;3.42;;;;;;;26.17;54.12;101787.91;1541632;92;21019;-48
2022/06/17 01:05:34;;;;;;;2.90;2.60;;;;;;;26.16;54.01;101786.70;1539569;92;21618;-48
2022/06/17 01:08:12;;;;;;;3.17;2.77;;;;;;;26.13;53.82;101778.92;1549074;92;21687;-50
2022/06/17 01:10:36;;;;;;;4.30;2.62;;;;;;;26.11;53.71;101786.19;1548422;92;21131;-48
2022/06/17 01:13:05;;;;;;;4.78;2.90;;;;;;;26.08;53.55;101779.72;1557448;92;21074;-50
2022/06/17 01:15:35;;;;;;;5.47;2.57;;;;;;;26.05;53.48;101782.58;1552757;92;21070;-51
2022/06/17 01:18:02;;;;;;;4.53;2.35;;;;;;;26.03;53.31;101786.66;1529209;92;21096;-53
2022/06/17 01:20:31;;;;;;;3.47;2.27;;;;;;;26.02;53.21;101782.78;1564799;90;21598;-50
2022/06/17 01:23:01;;;;;;;2.67;1.92;;;;;;;26.00;53.11;101776.70;1557863;92;21108;-48
2022/06/17 01:25:32;;;;;;;2.50;2.27;;;;;;;25.98;52.94;101771.48;1552699;92;21071;-50
2022/06/17 01:28:08;;;;;;;2.87;2.22;;;;;;;25.96;52.67;101768.07;1555535;91;21129;-50
2022/06/17 01:30:44;;;;;;;2.33;2.12;;;;;;;25.96;52.51;101768.07;1577342;90;21080;-48
2022/06/17 01:33:22;;;;;;;3.12;1.98;;;;;;;25.95;52.23;101764.16;1581492;90;21617;-48
2022/06/17 01:36:07;;;;;;;2.33;2.10;;;;;;;25.95;51.92;101761.48;1581465;90;21145;-49
2022/06/17 01:38:35;;;;;;;6.20;2.08;;;;;;;25.94;51.60;101763.80;1621939;86;21066;-49
2022/06/17 01:41:02;;;;;;;2.15;1.92;;;;;;;25.95;51.51;101767.68;1639894;86;21039;-48
2022/06/17 01:43:49;;;;;;;5.80;1.98;;;;;;;25.93;51.37;101756.73;1636686;88;21571;-51
2022/06/17 01:46:24;;;;;;;4.37;2.30;;;;;;;25.92;51.36;101749.72;1659174;86;21098;-49
2022/06/17 01:48:58;;;;;;;2.70;2.22;;;;;;;25.92;51.33;101753.25;1662239;86;21566;-50
2022/06/17 01:51:26;;;;;;;2.60;1.95;;;;;;;25.91;51.28;101742.66;1605527;89;21161;-49
2022/06/17 01:53:56;;;;;;;3.10;2.42;;;;;;;25.92;51.26;101739.05;1589275;89;21038;-48
2022/06/17 01:56:28;;;;;;;3.87;2.20;;;;;;;25.90;51.30;101733.83;1579149;90;21070;-49
2022/06/17 01:59:01;;;;;;;3.42;2.02;;;;;;;25.91;51.37;101732.00;1589183;89;21562;-51
2022/06/17 02:01:30;;;;;;;4.05;2.08;;;;;;;25.89;51.42;101733.45;1588876;90;21098;-50
2022/06/17 02:04:03;;;;;;;2.42;1.95;;;;;;;25.90;51.55;101734.30;1583892;89;21118;-48
2022/06/17 02:06:39;;;;;;;2.42;2.05;;;;;;;25.90;51.58;101736.97;1689990;84;21069;-50
2022/06/17 02:09:06;;;;;;;3.62;2.30;;;;;;;25.89;51.55;101738.78;1685831;85;21070;-48
2022/06/17 02:11:36;;;;;;;3.25;2.08;;;;;;;25.90;51.62;101740.97;1690398;84;21119;-50
2022/06/17 02:16:49;;;;;;;3.70;2.10;;;;;;;25.89;51.65;101725.91;1627665;87;21036;-50
2022/06/17 02:19:36;;;;;;;2.80;2.30;;;;;;;25.90;51.65;101734.30;1627436;87;21538;-51
2022/06/17 02:22:08;;;;;;;2.90;2.20;;;;;;;25.89;52.02;101740.11;1627364;87;21527;-47
2022/06/17 02:24:35;;;;;;;3.17;2.00;;;;;;;25.88;52.16;101733.09;1571643;90;21046;-48
2022/06/17 02:27:04;;;;;;;4.20;2.20;;;;;;;25.88;52.31;101734.89;1573203;90;21051;-51
2022/06/17 02:29:31;;;;;;;4.20;2.00;;;;;;;25.88;52.50;101732.23;1581562;89;21596;-49
2022/06/17 02:32:02;;;;;;;3.58;1.75;;;;;;;25.88;52.66;101737.56;1577490;90;21187;-49
2022/06/17 02:34:29;;;;;;;2.55;1.87;;;;;;;25.90;52.72;101738.30;1580640;89;21594;-50
2022/06/17 02:37:05;;;;;;;3.85;2.25;;;;;;;25.91;52.83;101739.99;1580961;89;21074;-47
2022/06/17 02:39:33;;;;;;;3.35;2.22;;;;;;;25.91;52.97;101739.99;1581198;89;21063;-48
2022/06/17 02:42:00;;;;;;;3.77;2.05;;;;;;;25.94;52.89;101750.47;1575604;89;21543;-50
2022/06/17 02:44:34;;;;;;;5.85;2.25;;;;;;;25.93;52.72;101748.74;1582522;89;21103;-48
2022/06/17 02:47:02;;;;;;;5.00;2.30;;;;;;;25.95;52.45;101749.48;1584856;87;21566;-48
2022/06/17 02:49:33;;;;;;;2.92;1.82;;;;;;;25.95;52.21;101745.48;1643586;87;22313;-50
2022/06/17 02:52:02;;;;;;;;;;;;;;;25.97;52.09;101753.76;1646026;87;21003;-48
2022/06/17 02:54:33;;;;;;;4.03;1.90;;;;;;;25.97;52.00;101750.23;1604651;89;20409;-49
2022/06/17 02:57:00;;;;;;;4.87;1.70;;;;;;;25.97;51.86;101747.09;1605566;89;21071;-49
2022/06/17 02:59:39;;;;;;;5.17;1.87;;;;;;;25.97;51.68;101748.42;1606652;89;21028;-48
2022/06/17 03:02:20;;;;;;;3.30;1.95;;;;;;;25.99;51.70;101747.01;1596998;89;21147;-48
2022/06/17 03:04:49;;;;;;;3.05;1.70;;;;;;;26.00;51.66;101740.22;1611886;88;21609;-49
2022/06/17 03:07:18;;;;;;;4.17;1.87;;;;;;;26.03;51.71;101743.16;1629781;88;21094;-50
2022/06/17 03:09:47;;;;;;;3.55;1.77;;;;;;;26.03;51.88;101734.66;1628740;88;21050;-50
2022/06/17 03:12:21;;;;;;;3.12;1.62;;;;;;;26.07;51.85;101737.98;1630180;88;21153;-48
2022/06/17 03:14:59;;;;;;;3.52;1.50;;;;;;;26.09;51.84;101738.76;1629704;88;21031;-53
2022/06/17 03:17:26;;;;;;;2.33;1.65;;;;;;;26.11;51.67;101736.83;1609739;88;21661;-50
2022/06/17 03:19:55;;;;;;;2.85;1.50;;;;;;;26.14;51.61;101736.59;1636482;87;21163;-51
2022/06/17 03:22:22;;;;;;;2.67;1.42;;;;;;;26.16;51.56;101736.01;1625271;87;21547;-47
2022/06/17 03:25:04;;;;;;;3.02;1.92;;;;;;;26.19;51.50;101738.00;1619973;87;21054;-49
2022/06/17 03:27:45;;;;;;;3.77;1.82;;;;;;;26.23;51.81;101734.63;1647575;85;21006;-50
2022/06/17 03:30:14;;;;;;;2.72;1.55;;;;;;;26.28;51.98;101739.13;1673885;85;21563;-48
2022/06/17 03:32:45;;;;;;;2.65;1.42;;;;;;;26.33;51.95;101747.67;1679532;85;21605;-50
2022/06/17 03:35:19;;;;;;;3.87;1.60;;;;;;;26.35;51.80;101745.75;1679801;85;21554;-48
2022/06/17 03:37:57;;;;;;;3.47;1.37;;;;;;;26.42;51.37;101744.36;1645616;85;21039;-48
2022/06/17 03:40:36;;;;;;;3.37;1.32;;;;;;;26.47;51.09;101742.19;1679849;85;21007;-51
2022/06/17 03:43:09;;;;;;;2.50;1.77;;;;;;;26.58;50.97;101743.10;1637779;88;21078;-51
2022/06/17 03:46:02;;;;;;;1.95;1.25;;;;;;;26.83;50.80;101742.19;1637546;88;21086;-49
2022/06/17 03:48:56;;;;;;;5.97;1.77;;;;;;;27.29;50.18;101744.94;1673476;85;21023;-51
2022/06/17 03:51:24;;;;;;;1.82;1.35;;;;;;;27.98;48.65;101738.71;1679328;85;21031;-52
2022/06/17 03:53:51;;;;;;;1.87;1.10;;;;;;;28.79;47.11;101734.72;1679540;85;20987;-49
2022/06/17 03:56:25;;;;;;;2.27;1.47;;;;;;;29.48;45.28;101735.18;1679549;85;21519;-48
2022/06/17 03:58:58;;;;;;;3.20;1.32;;;;;;;30.09;43.89;101732.10;1679458;85;21031;-51
2022/06/17 04:01:42;;;;;;;2.47;1.32;;;;;;;30.70;42.17;101731.51;1763384;81;21007;-49
2022/06/17 04:04:21;;;;;;;2.40;1.22;;;;;;;31.11;40.59;101724.56;1765360;81;21010;-50
2022/06/17 04:06:53;;;;;;;3.37;1.50;;;;;;;31.25;39.85;101726.33;1700086;82;21533;-50
2022/06/17 04:09:27;;;;;;;1.12;1.00;;;;;;;31.18;39.90;101734.59;1723960;82;21072;-48
2022/06/17 04:12:02;;;;;;;2.70;1.30;;;;;;;31.04;40.43;101730.14;1724883;82;21027;-52
2022/06/17 04:14:47;;;;;;;5.33;1.22;;;;;;;30.93;40.98;101722.23;1704433;82;21047;-50
2022/06/17 04:17:42;;;;;;;2.98;1.40;;;;;;;30.87;41.14;101722.80;1727056;82;21054;-48
2022/06/17 04:20:54;;;;;;;4.12;1.35;;;;;;;30.80;41.04;101722.96;1718469;82;21014;-49
2022/06/17 04:23:33;;;;;;;2.83;1.37;;;;;;;30.59;41.17;101710.12;1678548;84;21046;-51
2022/06/17 04:26:29;;;;;;;4.05;1.30;;;;;;;30.27;41.81;101707.64;1643474;87;21013;-51
2022/06/17 04:29:01;;;;;;;3.67;1.60;;;;;;;29.99;42.28;101710.56;1638492;87;21083;-50
2022/06/17 04:31:30;;;;;;;1.62;1.30;;;;;;;29.70;42.76;101715.77;1638099;87;21083;-49
2022/06/17 04:34:18;;;;;;;1.87;1.47;;;;;;;29.48;43.28;101716.41;1642512;87;21110;-48
2022/06/17 04:36:59;;;;;;;3.62;1.20;;;;;;;29.26;43.87;101705.34;1638314;87;21039;-49
2022/06/17 04:39:46;;;;;;;2.65;1.30;;;;;;;29.05;44.44;101708.45;1638304;87;21099;-48
2022/06/17 04:42:38;;;;;;;3.72;1.37;;;;;;;28.87;45.02;101701.45;1607882;89;21078;-47
2022/06/17 04:45:13;;;;;;;2.92;1.50;;;;;;;28.70;45.35;101702.02;1607643;89;21106;-49
2022/06/17 04:47:40;;;;;;;1.98;1.30;;;;;;;28.56;45.72;101700.97;1582942;91;21126;-53
2022/06/17 04:50:13;;;;;;;2.80;1.40;;;;;;;28.45;46.20;101698.27;1576240;91;21201;-50
2022/06/17 04:52:43;;;;;;;4.15;1.37;;;;;;;28.38;46.65;101705.61;1531190;93;21067;-48
2022/06/17 04:55:35;;;;;;;2.45;1.30;;;;;;;28.31;46.71;101699.03;1529592;93;21068;-50
2022/06/17 04:58:12;;;;;;;2.52;1.30;;;;;;;28.23;47.09;101698.33;1498174;93;21149;-50
2022/06/17 05:00:46;;;;;;;2.30;1.57;;;;;;;28.20;47.34;101699.89;1484635;96;21101;-51
2022/06/17 05:03:13;;;;;;;3.87;1.40;;;;;;;28.23;47.39;101701.00;1460814;97;21571;-50
2022/06/17 05:05:45;;;;;;;2.80;1.20;;;;;;;28.28;47.13;101698.78;1481802;96;21621;-48
2022/06/17 05:08:27;;;;;;;3.20;1.50;;;;;;;28.35;47.13;101701.82;1481722;96;21138;-49
2022/06/17 05:11:08;;;;;;;1.40;1.00;;;;;;;28.47;46.99;101707.03;1475626;96;21179;-49
2022/06/17 05:13:43;;;;;;;2.70;1.30;;;;;;;28.63;46.77;101707.50;1444141;99;21182;-50
2022/06/17 05:16:12;;;;;;;2.08;1.35;;;;;;;28.80;46.07;101712.33;1411786;101;21833;-48
2022/06/17 05:18:40;;;;;;;1.62;1.30;;;;;;;29.01;45.48;101715.53;1443500;97;21556;-50
2022/06/17 05:21:23;;;;;;;4.67;1.75;;;;;;;29.22;45.19;101712.42;1462991;97;21153;-48
2022/06/17 05:23:55;;;;;;;2.77;1.17;;;;;;;29.47;44.94;101718.75;1460845;95;21107;-49
2022/06/17 05:26:23;;;;;;;4.08;1.70;;;;;;;29.70;44.49;101714.42;1540751;93;21113;-49
2022/06/17 05:28:50;;;;;;;1.72;1.05;;;;;;;29.91;43.41;101711.73;1576028;90;21106;-52
2022/06/17 05:31:20;;;;;;;3.37;1.40;;;;;;;30.07;42.71;101706.71;1582663;91;21590;-50
2022/06/17 05:33:49;;;;;;;2.72;1.42;;;;;;;30.19;42.12;101705.62;1561914;91;21113;-49
2022/06/17 05:36:16;;;;;;;1.98;1.37;;;;;;;30.26;42.06;101704.09;1569897;91;21134;-48
2022/06/17 05:38:44;;;;;;;1.20;1.10;;;;;;;30.29;42.05;101705.22;1581167;91;21067;-49
2022/06/17 05:41:15;;;;;;;2.65;1.50;;;;;;;30.31;42.00;101716.67;1581855;91;21087;-51
2022/06/17 05:43:42;;;;;;;3.25;0.95;;;;;;;30.30;42.25;101711.41;1454325;97;21123;-52
2022/06/17 05:46:11;;;;;;;4.28;1.50;;;;;;;30.29;42.15;101710.58;1439763;98;21131;-48
2022/06/17 05:48:55;;;;;;;2.35;1.30;;;;;;;30.28;42.03;101711.52;1455089;93;21119;-48
2022/06/17 05:51:31;;;;;;;2.22;1.27;;;;;;;30.28;42.12;101712.87;1463744;96;21107;-49
2022/06/17 05:54:09;;;;;;;4.03;1.25;;;;;;;30.26;42.57;101712.16;1464968;96;21156;-50
2022/06/17 05:56:41;;;;;;;2.00;1.20;;;;;;;30.24;42.40;101707.41;1465271;96;21153;-48
2022/06/17 05:59:10;;;;;;;1.67;1.10;;;;;;;30.25;42.33;101713.64;1464196;98;21182;-50
2022/06/17 06:01:37;;;;;;;5.58;1.42;;;;;;;30.28;42.35;101707.98;1465151;96;21092;-52
2022/06/17 06:04:05;;;;;;;2.60;1.27;;;;;;;30.33;42.14;101705.30;1464975;96;21572;-50
2022/06/17 06:06:32;;;;;;;2.65;1.20;;;;;;;30.40;41.94;101706.42;1465270;96;21060;-52
2022/06/17 06:08:59;;;;;;;2.95;1.20;;;;;;;30.48;41.60;101707.92;1464985;96;22402;-53
2022/06/17 06:11:27;;;;;;;3.40;1.10;;;;;;;30.56;41.40;101703.70;1465018;96;21167;-49
2022/06/17 06:13:54;;;;;;;3.22;1.30;;;;;;;30.63;41.03;101702.14;1473953;95;21644;-50
2022/06/17 06:16:21;;;;;;;5.20;1.30;;;;;;;30.72;40.64;101696.80;1484279;96;21097;-48
2022/06/17 06:18:51;;;;;;;1.50;1.07;;;;;;;30.85;40.57;101695.22;1451925;99;21128;-49
2022/06/17 06:21:20;;;;;;;1.60;1.20;;;;;;;31.04;40.07;101697.87;1394663;103;21111;-54
2022/06/17 06:23:47;;;;;;;2.75;1.32;;;;;;;31.22;39.79;101690.30;1394777;103;21135;-53
2022/06/17 06:26:20;;;;;;;2.83;1.20;;;;;;;31.44;39.38;101685.13;1394990;103;21182;-54
2022/06/17 06:28:49;;;;;;;2.67;1.10;;;;;;;31.66;39.04;101686.12;1399270;102;21114;-50
2022/06/17 06:31:34;;;;;;;2.42;1.12;;;;;;;31.88;38.61;101685.75;1402906;102;21137;-50
2022/06/17 06:34:02;;;;;;;1.67;1.05;;;;;;;32.03;38.20;101684.80;1388891;103;21243;-50
2022/06/17 06:36:33;;;;;;;2.35;1.50;;;;;;;32.09;38.19;101687.74;1363493;104;21232;-48
2022/06/17 06:39:00;;;;;;;2.92;1.22;;;;;;;32.06;37.84;101679.98;1364358;104;21619;-51
2022/06/17 06:41:27;;;;;;;1.35;1.10;;;;;;;31.97;37.79;101686.25;1385403;102;21136;-49
2022/06/17 06:43:55;;;;;;;4.65;1.10;;;;;;;31.86;37.85;101683.70;1392616;102;21636;-48
2022/06/17 06:46:40;;;;;;;3.20;1.15;;;;;;;31.74;38.17;101691.62;1401763;102;21177;-50
2022/06/17 06:49:09;;;;;;;3.12;1.42;;;;;;;31.62;38.42;101688.76;1442554;97;21113;-52
2022/06/17 06:51:36;;;;;;;1.80;1.17;;;;;;;31.52;39.09;101682.56;1479025;97;21608;-47
2022/06/17 06:54:05;;;;;;;2.30;1.45;;;;;;;31.42;39.19;101680.39;1478875;96;21113;-52
2022/06/17 06:56:31;;;;;;;1.57;1.35;;;;;;;31.33;39.34;101673.16;1478883;96;21101;-50
2022/06/17 06:58:58;;;;;;;2.87;1.17;;;;;;;31.25;39.33;101674.37;1479097;96;21561;-50
2022/06/17 07:01:25;;;;;;;3.02;1.30;;;;;;;31.22;39.57;101675.50;1478844;96;21097;-50
2022/06/17 07:03:52;;;;;;;3.00;1.17;;;;;;;31.24;39.48;101674.04;1478853;96;21065;-49
2022/06/17 07:06:21;;;;;;;4.75;1.70;;;;;;;31.29;39.60;101675.30;1479078;97;21093;-51
2022/06/17 07:08:49;;;;;;;2.60;1.57;;;;;;;31.38;39.51;101666.86;1478964;96;21117;-49
2022/06/17 07:11:16;;;;;;;2.40;1.35;;;;;;;31.43;39.54;101671.31;1479097;96;21104;-48
2022/06/17 07:13:45;;;;;;;1.90;1.10;;;;;;;31.44;39.84;101673.03;1478770;96;21621;-55
2022/06/17 07:16:14;;;;;;;2.12;1.50;;;;;;;31.44;39.91;101669.00;1474574;97;21077;-51
2022/06/17 07:18:41;;;;;;;2.20;1.17;;;;;;;31.47;40.00;101668.69;1495023;94;21286;-50
2022/06/17 07:21:10;;;;;;;2.00;1.77;;;;;;;31.53;39.66;101666.75;1552282;87;21160;-52
2022/06/17 07:23:41;;;;;;;2.12;1.27;;;;;;;31.60;39.80;101671.05;1646349;87;21050;-50
2022/06/17 07:26:11;;;;;;;1.90;1.20;;;;;;;31.65;39.56;101664.27;1647743;87;21039;-51
2022/06/17 07:28:38;;;;;;;;;;;;;;;31.68;39.42;101665.78;1654969;84;21061;-50
2022/06/17 07:31:05;;;;;;;3.95;1.50;;;;;;;31.65;39.33;101667.44;1731193;81;20462;-55
2022/06/17 07:33:32;;;;;;;3.47;1.27;;;;;;;31.60;39.29;101669.22;1737832;81;21018;-49
2022/06/17 07:36:01;;;;;;;4.90;1.32;;;;;;;31.56;39.59;101672.34;1753519;81;21612;-53
2022/06/17 07:41:19;;;;;;;1.57;1.35;;;;;;;31.45;39.96;101672.02;1737173;81;21569;-52
2022/06/17 07:43:46;;;;;;;6.47;1.47;;;;;;;31.36;40.11;101670.19;1733308;81;20977;-55
2022/06/17 07:46:13;;;;;;;3.10;1.17;;;;;;;31.27;39.84;101671.05;1725985;81;21093;-49
2022/06/17 07:48:40;;;;;;;2.27;1.12;;;;;;;31.15;40.05;101671.71;1734789;81;21033;-51
2022/06/17 07:51:08;;;;;;;1.92;1.20;;;;;;;31.04;40.29;101683.09;1734777;81;21577;-51
2022/06/17 07:53:41;;;;;;;2.67;1.42;;;;;;;30.94;40.92;101678.22;1735001;81;21045;-54
2022/06/17 07:56:05;;;;;;;4.78;1.60;;;;;;;30.84;41.17;101678.20;1738447;81;21042;-51
2022/06/17 07:58:33;;;;;;;2.35;1.40;;;;;;;30.78;41.59;101678.77;1730881;81;21029;-51
2022/06/17 08:01:00;;;;;;;1.87;1.42;;;;;;;30.75;41.61;101674.19;1729846;81;21061;-51
2022/06/17 08:03:27;;;;;;;4.08;1.40;;;;;;;30.72;41.56;101675.80;1723098;81;21142;-49
2022/06/17 08:05:57;;;;;;;5.20;1.40;;;;;;;30.69;41.53;101680.95;1659957;85;21092;-52
2022/06/17 08:08:25;;;;;;;2.30;1.70;;;;;;;30.63;41.72;101673.94;1667012;85;21067;-52
2022/06/17 08:10:55;;;;;;;2.37;1.30;;;;;;;30.57;42.11;101673.16;1663519;85;21528;-51
2022/06/17 08:13:22;;;;;;;4.60;1.30;;;;;;;30.51;42.65;101674.57;1652884;85;21038;-50
2022/06/17 08:15:52;;;;;;;3.08;1.70;;;;;;;30.46;42.78;101683.04;1665626;85;21090;-51
2022/06/17 08:18:20;;;;;;;2.15;1.45;;;;;;;30.41;43.08;101685.31;1672371;85;21618;-49
2022/06/17 08:20:48;;;;;;;2.70;1.30;;;;;;;30.34;43.18;101682.80;1674313;85;21574;-49
2022/06/17 08:23:15;;;;;;;2.40;1.45;;;;;;;30.26;43.22;101682.62;1671024;85;21115;-51
2022/06/17 08:25:42;;;;;;;3.02;1.17;;;;;;;30.19;43.23;101682.80;1680116;85;21024;-55
2022/06/17 08:28:11;;;;;;;3.20;1.55;;;;;;;30.11;43.39;101689.34;1669668;85;21539;-53
2022/06/17 08:30:44;;;;;;;2.40;1.40;;;;;;;30.00;43.61;101684.10;1683751;83;21089;-49
2022/06/17 08:33:11;;;;;;;4.72;1.27;;;;;;;29.94;43.97;101685.98;1698618;83;21072;-51
2022/06/17 08:35:42;;;;;;;2.40;1.45;;;;;;;29.88;44.24;101689.21;1696310;83;21601;-52
2022/06/17 08:38:14;;;;;;;4.83;1.50;;;;;;;29.82;44.75;101685.70;1725360;82;21041;-53
2022/06/17 08:40:55;;;;;;;3.37;1.50;;;;;;;29.77;44.77;101687.95;1753913;82;21054;-53
2022/06/17 08:44:12;;;;;;;6.03;1.67;;;;;;;29.70;45.04;101682.23;1753127;82;21054;-51
2022/06/17 08:47:22;;;;;;;2.42;1.35;;;;;;;29.64;45.32;101687.27;1748596;80;21034;-52
2022/06/17 08:50:15;;;;;;;3.75;1.40;;;;;;;29.57;45.57;101694.17;1747929;80;21050;-53
2022/06/17 08:53:30;;;;;;;4.20;1.60;;;;;;;29.49;45.43;101689.45;1747924;80;21061;-48
2022/06/17 08:56:10;;;;;;;1.92;1.45;;;;;;;29.42;45.67;101695.48;1742900;80;21093;-51
2022/06/17 08:58:54;;;;;;;3.45;1.30;;;;;;;29.33;45.97;101689.55;1744962;81;21522;-54
2022/06/17 09:01:44;;;;;;;3.22;1.45;;;;;;;29.27;46.30;101688.74;1745313;81;21014;-52
2022/06/17 09:04:34;;;;;;;4.70;1.40;;;;;;;29.20;45.98;101687.58;1754500;81;21037;-50
2022/06/17 09:07:41;;;;;;;1.65;1.20;;;;;;;29.11;45.87;101689.66;1757223;80;21057;-50
2022/06/17 09:10:18;;;;;;;2.40;1.30;;;;;;;29.07;46.06;101692.23;1758004;80;21069;-50
2022/06/17 09:12:56;;;;;;;2.80;1.57;;;;;;;28.99;46.38;101691.55;1720955;82;21132;-50
2022/06/17 09:15:55;;;;;;;1.90;1.17;;;;;;;28.92;46.37;101688.53;1713097;82;21550;-52
2022/06/17 09:18:35;;;;;;;1.98;1.60;;;;;;;28.87;46.41;101686.72;1593212;88;22120;-51
2022/06/17 09:21:18;;;;;;;2.67;1.72;;;;;;;28.82;46.75;101684.92;1602828;88;21113;-52
2022/06/17 09:23:46;;;;;;;4.78;1.40;;;;;;;28.79;46.95;101683.83;1545864;90;21093;-52
2022/06/17 09:26:31;;;;;;;2.08;1.30;;;;;;;28.78;46.99;101680.80;1601245;89;21221;-48
2022/06/17 09:29:09;;;;;;;2.52;1.70;;;;;;;28.79;46.96;101681.14;1610415;89;21077;-52
2022/06/17 09:31:40;;;;;;;2.22;1.47;;;;;;;28.82;46.96;101682.73;1539720;93;21103;-49
2022/06/17 09:34:28;;;;;;;3.30;1.67;;;;;;;28.84;47.29;101682.97;1537220;93;21027;-52
2022/06/17 09:37:07;;;;;;;2.27;1.40;;;;;;;28.85;47.37;101683.31;1542082;92;21119;-53
2022/06/17 09:39:58;;;;;;;2.75;1.60;;;;;;;28.88;47.54;101681.73;1539508;92;21105;-50
2022/06/17 09:42:41;;;;;;;3.52;1.70;;;;;;;28.90;47.87;101681.59;1545320;92;21110;-49
2022/06/17 09:45:19;;;;;;;2.37;1.10;;;;;;;28.90;48.00;101683.79;1548516;92;21093;-53
2022/06/17 09:47:53;;;;;;;3.50;1.37;;;;;;;28.95;48.14;101680.22;1551648;92;21103;-51
2022/06/17 09:50:32;;;;;;;4.65;1.42;;;;;;;29.01;48.13;101678.88;1580925;90;21209;-54
2022/06/17 09:53:25;;;;;;;3.52;1.40;;;;;;;29.11;47.73;101671.75;1543554;92;21120;-56
2022/06/17 09:55:59;;;;;;;3.72;1.45;;;;;;;29.23;47.44;101672.56;1536758;92;21101;-50
2022/06/17 09:58:39;;;;;;;2.65;1.30;;;;;;;29.37;47.74;101670.88;1529851;92;21106;-48
2022/06/17 10:01:06;;;;;;;2.05;1.40;;;;;;;29.51;47.83;101665.20;1537268;92;21086;-50
2022/06/17 10:03:36;;;;;;;2.98;1.62;;;;;;;29.63;47.48;101658.77;1509476;92;21100;-56
2022/06/17 10:06:27;;;;;;;5.35;1.60;;;;;;;29.74;47.11;101661.38;1567053;90;21553;-51
2022/06/17 10:09:06;;;;;;;3.22;1.40;;;;;;;29.82;47.08;101650.81;1561782;91;21097;-50
2022/06/17 10:12:11;;;;;;;2.98;1.60;;;;;;;29.90;47.01;101651.02;1530083;93;21096;-51
2022/06/17 10:15:03;;;;;;;4.28;1.55;;;;;;;29.95;46.40;101650.58;1527550;93;21121;-51
2022/06/17 10:21:32;;;;;;;3.42;1.98;;;;;;;29.97;46.25;101644.10;1537354;92;21098;-53
2022/06/17 10:24:10;;;;;;;12.28;9.20;;;;;;;29.97;45.88;101637.88;1485380;95;21084;-53
2022/06/17 10:26:55;;;;;;;3.65;1.67;;;;;;;29.93;45.79;101632.42;1487916;95;21201;-51
2022/06/17 10:30:04;;;;;;;4.22;1.60;;;;;;;29.89;45.97;101624.30;1495981;95;21068;-51
2022/06/17 10:32:34;;;;;;;4.47;2.10;;;;;;;29.85;46.19;101626.41;1498354;95;21162;-53
2022/06/17 10:35:03;;;;;;;4.72;1.57;;;;;;;29.80;46.07;101620.59;1483621;96;21138;-51
2022/06/17 10:37:33;;;;;;;2.72;1.75;;;;;;;29.75;46.51;101614.80;1466301;97;21133;-52
2022/06/17 10:40:00;;;;;;;5.53;1.80;;;;;;;29.72;46.50;101606.97;1483623;96;21623;-50
2022/06/17 10:42:28;;;;;;;4.72;1.67;;;;;;;29.71;46.53;101599.92;1485134;96;21078;-51
2022/06/17 10:45:00;;;;;;;3.27;1.67;;;;;;;29.69;46.65;101599.22;1479277;96;21566;-50
2022/06/17 10:47:59;;;;;;;3.98;1.30;;;;;;;29.70;46.54;101592.84;1482271;96;21177;-50
2022/06/17 10:50:29;;;;;;;4.05;1.35;;;;;;;29.70;46.36;101596.88;1514547;93;21056;-48
2022/06/17 10:53:01;;;;;;;3.35;1.62;;;;;;;29.74;46.09;101592.97;1522885;93;21077;-48
2022/06/17 10:55:32;;;;;;;3.42;1.30;;;;;;;29.78;46.12;101585.00;1524005;91;21092;-50
2022/06/17 10:58:23;;;;;;;3.50;1.67;;;;;;;29.84;45.78;101587.16;1516906;93;21121;-52
2022/06/17 11:01:07;;;;;;;;;;;;;;;29.87;45.67;101580.16;1585522;90;21073;-54
2022/06/17 11:03:39;;;;;;;4.58;2.90;;;;;;;29.91;44.84;101576.70;1600468;88;20135;-53
2022/06/17 11:06:20;;;;;;;3.80;1.65;;;;;;;29.92;43.53;101573.05;1620635;88;21074;-53
2022/06/17 11:09:02;;;;;;;4.05;2.47;;;;;;;29.94;43.30;101571.08;1620657;88;21140;-52
2022/06/17 11:12:10;;;;;;;10.50;7.03;;;;;;;29.94;43.12;101574.62;1620775;88;21037;-52
2022/06/17 11:14:43;;;;;;;6.40;1.25;;;;;;;29.94;43.21;101565.71;1641863;87;21565;-51
2022/06/17 11:17:43;;;;;;;1.98;1.40;;;;;;;29.97;43.18;101578.84;1559606;90;21095;-53
2022/06/17 11:20:32;;;;;;;2.30;1.30;;;;;;;29.98;43.26;101587.26;1606899;89;21077;-52
2022/06/17 11:23:21;;;;;;;4.55;1.52;;;;;;;30.00;42.56;101589.31;1564643;90;21557;-51
2022/06/17 11:25:48;;;;;;;2.30;1.40;;;;;;;30.01;42.46;101599.90;1564573;90;21109;-50
2022/06/17 11:28:25;;;;;;;4.03;1.40;;;;;;;30.01;42.62;101609.30;1567572;90;21073;-49
2022/06/17 11:31:02;;;;;;;3.75;1.50;;;;;;;30.02;42.52;101612.34;1560351;90;21043;-52
2022/06/17 11:33:40;;;;;;;5.22;1.50;;;;;;;30.01;42.51;101603.92;1547800;92;21171;-50
2022/06/17 11:36:16;;;;;;;3.27;1.42;;;;;;;30.00;42.81;101603.58;1514379;93;21719;-50
2022/06/17 11:38:45;;;;;;;5.75;2.12;;;;;;;30.00;42.86;101608.09;1513711;92;21059;-50
2022/06/17 11:41:27;;;;;;;2.98;1.60;;;;;;;30.00;42.74;101619.69;1534995;92;21124;-49
2022/06/17 11:44:12;;;;;;;6.75;1.42;;;;;;;30.01;43.02;101611.12;1544180;92;21094;-53
2022/06/17 11:46:56;;;;;;;3.85;1.65;;;;;;;30.05;42.78;101616.08;1547097;92;21137;-51
2022/06/17 11:49:24;;;;;;;4.12;1.60;;;;;;;30.05;42.41;101612.05;1505442;94;21565;-52
2022/06/17 11:52:02;;;;;;;2.77;1.35;;;;;;;30.04;42.29;101614.40;1486819;95;21141;-51
2022/06/17 11:54:38;;;;;;;3.70;1.25;;;;;;;29.99;42.08;101607.23;1501600;95;21657;-50
2022/06/17 11:57:31;;;;;;;4.90;1.62;;;;;;;29.95;42.40;101613.87;1478688;96;21169;-49
2022/06/17 12:00:03;;;;;;;5.42;1.60;;;;;;;29.88;42.69;101610.05;1478457;96;21065;-51
2022/06/17 12:02:32;;;;;;;2.87;1.70;;;;;;;29.82;42.85;101607.89;1482665;96;21061;-50
2022/06/17 12:05:19;;;;;;;3.15;1.30;;;;;;;29.79;42.43;101610.86;1476941;96;21178;-50
2022/06/17 12:08:01;;;;;;;3.30;1.32;;;;;;;29.75;42.22;101608.09;1474799;96;21125;-50
2022/06/17 12:10:49;;;;;;;4.33;1.80;;;;;;;29.70;42.10;101606.27;1436488;99;21193;-51
2022/06/17 12:13:51;;;;;;;3.35;1.50;;;;;;;29.62;42.62;101600.73;1462934;97;21088;-52